sensor_id;sensor_type;location;lat;lon;timestamp;temperature;humidity
13409;DHT22;6775;49.574;11.170;2022-10-18T00:00:58;12.70;99.90
13409;DHT22;6775;49.574;11.170;2022-10-18T00:03:26;12.60;99.90
13409;DHT22;6775;49.574;11.170;2022-10-18T00:05:55;12.60;99.90
13409;DHT22;6775;49.574;11.170;2022-10-18T00:08:24;12.60;99.90
13409;DHT22;6775;49.574;11.170;2022-10-18T00:10:53;12.60;99.90
13409;DHT22;6775;49.574;11.170;2022-10-18T00:13:21;12.60;99.90
13409;DHT22;6775;49.574;11.170;2022-10-18T00:15:50;12.50;99.90
13409;DHT22;6775;49.574;11.170;2022-10-18T00:18:19;12.50;99.90
13409;DHT22;6775;49.574;11.170;2022-10-18T00:20:57;12.50;99.90
13409;DHT22;6775;49.574;11.170;2022-10-18T00:23:25;12.50;99.90
13409;DHT22;6775;49.574;11.170;2022-10-18T00:26:04;12.50;99.90
13409;DHT22;6775;49.574;11.170;2022-10-18T00:28:33;12.50;99.90
13409;DHT22;6775;49.574;11.170;2022-10-18T00:31:09;12.50;99.90
13409;DHT22;6775;49.574;11.170;2022-10-18T00:33:37;12.50;99.90
13409;DHT22;6775;49.574;11.170;2022-10-18T00:36:07;12.50;99.90
13409;DHT22;6775;49.574;11.170;2022-10-18T00:38:35;12.50;99.90
13409;DHT22;6775;49.574;11.170;2022-10-18T00:41:05;12.50;99.90
13409;DHT22;6775;49.574;11.170;2022-10-18T00:43:52;12.50;99.90
13409;DHT22;6775;49.574;11.170;2022-10-18T00:46:21;12.40;99.90
13409;DHT22;6775;49.574;11.170;2022-10-18T00:48:49;12.40;99.90
13409;DHT22;6775;49.574;11.170;2022-10-18T00:51:20;12.30;99.90
13409;DHT22;6775;49.574;11.170;2022-10-18T00:53:48;12.30;99.90
13409;DHT22;6775;49.574;11.170;2022-10-18T00:56:16;12.20;99.90
13409;DHT22;6775;49.574;11.170;2022-10-18T00:58:45;12.10;99.90
13409;DHT22;6775;49.574;11.170;2022-10-18T01:01:14;12.00;99.90
13409;DHT22;6775;49.574;11.170;2022-10-18T01:03:41;12.00;99.90
13409;DHT22;6775;49.574;11.170;2022-10-18T01:06:09;12.00;99.90
13409;DHT22;6775;49.574;11.170;2022-10-18T01:08:54;12.00;99.90
13409;DHT22;6775;49.574;11.170;2022-10-18T01:11:47;12.00;99.90
13409;DHT22;6775;49.574;11.170;2022-10-18T01:14:25;11.90;99.90
13409;DHT22;6775;49.574;11.170;2022-10-18T01:16:59;11.90;99.90
13409;DHT22;6775;49.574;11.170;2022-10-18T01:19:42;11.80;99.90
13409;DHT22;6775;49.574;11.170;2022-10-18T01:22:17;11.80;99.90
13409;DHT22;6775;49.574;11.170;2022-10-18T01:25:00;11.80;99.90
13409;DHT22;6775;49.574;11.170;2022-10-18T01:27:47;11.80;99.90
13409;DHT22;6775;49.574;11.170;2022-10-18T01:30:37;11.80;99.90
13409;DHT22;6775;49.574;11.170;2022-10-18T01:33:25;11.90;99.90
13409;DHT22;6775;49.574;11.170;2022-10-18T01:35:57;11.90;99.90
13409;DHT22;6775;49.574;11.170;2022-10-18T01:38:29;11.90;99.90
13409;DHT22;6775;49.574;11.170;2022-10-18T01:40:58;11.90;99.90
13409;DHT22;6775;49.574;11.170;2022-10-18T01:43:28;12.00;99.90
13409;DHT22;6775;49.574;11.170;2022-10-18T01:45:59;12.10;99.90
13409;DHT22;6775;49.574;11.170;2022-10-18T01:48:27;12.10;99.90
13409;DHT22;6775;49.574;11.170;2022-10-18T01:50:56;12.10;99.90
13409;DHT22;6775;49.574;11.170;2022-10-18T01:53:26;12.10;99.90
13409;DHT22;6775;49.574;11.170;2022-10-18T01:56:14;12.10;99.90
13409;DHT22;6775;49.574;11.170;2022-10-18T01:58:51;12.10;99.90
13409;DHT22;6775;49.574;11.170;2022-10-18T02:01:28;12.10;99.90
13409;DHT22;6775;49.574;11.170;2022-10-18T02:04:04;11.90;99.90
13409;DHT22;6775;49.574;11.170;2022-10-18T02:06:37;11.90;99.90
13409;DHT22;6775;49.574;11.170;2022-10-18T02:09:14;11.90;99.90
13409;DHT22;6775;49.574;11.170;2022-10-18T02:11:46;11.80;99.90
13409;DHT22;6775;49.574;11.170;2022-10-18T02:14:15;11.80;99.90
13409;DHT22;6775;49.574;11.170;2022-10-18T02:16:50;11.80;99.90
13409;DHT22;6775;49.574;11.170;2022-10-18T02:19:24;11.70;99.90
13409;DHT22;6775;49.574;11.170;2022-10-18T02:21:56;11.70;99.90
13409;DHT22;6775;49.574;11.170;2022-10-18T02:24:28;11.70;99.90
13409;DHT22;6775;49.574;11.170;2022-10-18T02:26:58;11.70;99.90
13409;DHT22;6775;49.574;11.170;2022-10-18T02:29:26;11.70;99.90
13409;DHT22;6775;49.574;11.170;2022-10-18T02:32:03;11.70;99.90
13409;DHT22;6775;49.574;11.170;2022-10-18T02:34:36;11.80;99.90
13409;DHT22;6775;49.574;11.170;2022-10-18T02:37:06;11.80;99.90
13409;DHT22;6775;49.574;11.170;2022-10-18T02:39:37;11.80;99.90
13409;DHT22;6775;49.574;11.170;2022-10-18T02:42:09;11.70;99.90
13409;DHT22;6775;49.574;11.170;2022-10-18T02:44:37;11.70;99.90
13409;DHT22;6775;49.574;11.170;2022-10-18T02:47:08;11.80;99.90
13409;DHT22;6775;49.574;11.170;2022-10-18T02:49:36;11.70;99.90
13409;DHT22;6775;49.574;11.170;2022-10-18T02:52:04;11.80;99.90
13409;DHT22;6775;49.574;11.170;2022-10-18T02:54:32;11.80;99.90
13409;DHT22;6775;49.574;11.170;2022-10-18T02:57:00;11.80;99.90
13409;DHT22;6775;49.574;11.170;2022-10-18T02:59:28;11.80;99.90
13409;DHT22;6775;49.574;11.170;2022-10-18T03:01:56;11.70;99.90
13409;DHT22;6775;49.574;11.170;2022-10-18T03:04:25;11.70;99.90
13409;DHT22;6775;49.574;11.170;2022-10-18T03:06:54;11.70;99.90
13409;DHT22;6775;49.574;11.170;2022-10-18T03:09:22;11.60;99.90
13409;DHT22;6775;49.574;11.170;2022-10-18T03:11:50;11.60;99.90
13409;DHT22;6775;49.574;11.170;2022-10-18T03:14:17;11.50;99.90
13409;DHT22;6775;49.574;11.170;2022-10-18T03:16:45;11.60;99.90
13409;DHT22;6775;49.574;11.170;2022-10-18T03:19:13;11.60;99.90
13409;DHT22;6775;49.574;11.170;2022-10-18T03:21:43;11.60;99.90
13409;DHT22;6775;49.574;11.170;2022-10-18T03:24:10;11.60;99.90
13409;DHT22;6775;49.574;11.170;2022-10-18T03:26:38;11.60;99.90
13409;DHT22;6775;49.574;11.170;2022-10-18T03:29:07;11.60;99.90
13409;DHT22;6775;49.574;11.170;2022-10-18T03:31:35;11.60;99.90
13409;DHT22;6775;49.574;11.170;2022-10-18T03:34:03;11.60;99.90
13409;DHT22;6775;49.574;11.170;2022-10-18T03:36:31;11.60;99.90
13409;DHT22;6775;49.574;11.170;2022-10-18T03:39:01;11.60;99.90
13409;DHT22;6775;49.574;11.170;2022-10-18T03:41:29;11.60;99.90
13409;DHT22;6775;49.574;11.170;2022-10-18T03:43:57;11.60;99.90
13409;DHT22;6775;49.574;11.170;2022-10-18T03:46:25;11.50;99.90
13409;DHT22;6775;49.574;11.170;2022-10-18T03:48:52;11.50;99.90
13409;DHT22;6775;49.574;11.170;2022-10-18T03:51:20;11.60;99.90
13409;DHT22;6775;49.574;11.170;2022-10-18T03:53:48;11.50;99.90
13409;DHT22;6775;49.574;11.170;2022-10-18T03:56:17;11.50;99.90
13409;DHT22;6775;49.574;11.170;2022-10-18T03:58:45;11.50;99.90
13409;DHT22;6775;49.574;11.170;2022-10-18T04:01:13;11.60;99.90
13409;DHT22;6775;49.574;11.170;2022-10-18T04:03:41;11.60;99.90
13409;DHT22;6775;49.574;11.170;2022-10-18T04:06:09;11.50;99.90
13409;DHT22;6775;49.574;11.170;2022-10-18T04:08:37;11.50;99.90
13409;DHT22;6775;49.574;11.170;2022-10-18T04:11:05;11.50;99.90
13409;DHT22;6775;49.574;11.170;2022-10-18T04:13:36;11.50;99.90
13409;DHT22;6775;49.574;11.170;2022-10-18T04:16:05;11.50;99.90
13409;DHT22;6775;49.574;11.170;2022-10-18T04:18:32;11.40;99.90
13409;DHT22;6775;49.574;11.170;2022-10-18T04:21:00;11.40;99.90
13409;DHT22;6775;49.574;11.170;2022-10-18T04:23:29;11.40;99.90
13409;DHT22;6775;49.574;11.170;2022-10-18T04:26:02;11.40;99.90
13409;DHT22;6775;49.574;11.170;2022-10-18T04:28:30;11.40;99.90
13409;DHT22;6775;49.574;11.170;2022-10-18T04:30:59;11.40;99.90
13409;DHT22;6775;49.574;11.170;2022-10-18T04:33:27;11.50;99.90
13409;DHT22;6775;49.574;11.170;2022-10-18T04:35:55;11.40;99.90
13409;DHT22;6775;49.574;11.170;2022-10-18T04:38:23;11.50;99.90
13409;DHT22;6775;49.574;11.170;2022-10-18T04:40:50;11.50;99.90
13409;DHT22;6775;49.574;11.170;2022-10-18T04:43:18;11.50;99.90
13409;DHT22;6775;49.574;11.170;2022-10-18T04:45:47;11.50;99.90
13409;DHT22;6775;49.574;11.170;2022-10-18T04:48:18;11.60;99.90
13409;DHT22;6775;49.574;11.170;2022-10-18T04:50:47;11.50;99.90
13409;DHT22;6775;49.574;11.170;2022-10-18T04:53:16;11.60;99.90
13409;DHT22;6775;49.574;11.170;2022-10-18T04:55:44;11.60;99.90
13409;DHT22;6775;49.574;11.170;2022-10-18T04:58:12;11.60;99.90
13409;DHT22;6775;49.574;11.170;2022-10-18T05:00:41;11.60;99.90
13409;DHT22;6775;49.574;11.170;2022-10-18T05:03:11;11.70;99.90
13409;DHT22;6775;49.574;11.170;2022-10-18T05:05:40;11.70;99.90
13409;DHT22;6775;49.574;11.170;2022-10-18T05:08:27;11.70;99.90
13409;DHT22;6775;49.574;11.170;2022-10-18T05:10:55;11.70;99.90
13409;DHT22;6775;49.574;11.170;2022-10-18T05:13:23;11.70;99.90
13409;DHT22;6775;49.574;11.170;2022-10-18T05:15:51;11.70;99.90
13409;DHT22;6775;49.574;11.170;2022-10-18T05:18:19;11.80;99.90
13409;DHT22;6775;49.574;11.170;2022-10-18T05:20:48;11.80;99.90
13409;DHT22;6775;49.574;11.170;2022-10-18T05:23:16;11.90;99.90
13409;DHT22;6775;49.574;11.170;2022-10-18T05:25:44;11.80;99.90
13409;DHT22;6775;49.574;11.170;2022-10-18T05:28:13;11.80;99.90
13409;DHT22;6775;49.574;11.170;2022-10-18T05:31:01;11.90;99.90
13409;DHT22;6775;49.574;11.170;2022-10-18T05:33:30;11.90;99.90
13409;DHT22;6775;49.574;11.170;2022-10-18T05:35:59;11.90;99.90
13409;DHT22;6775;49.574;11.170;2022-10-18T05:38:27;11.90;99.90
13409;DHT22;6775;49.574;11.170;2022-10-18T05:40:57;11.90;99.90
13409;DHT22;6775;49.574;11.170;2022-10-18T05:43:26;11.90;99.90
13409;DHT22;6775;49.574;11.170;2022-10-18T05:45:55;11.90;99.90
13409;DHT22;6775;49.574;11.170;2022-10-18T05:48:23;11.90;99.90
13409;DHT22;6775;49.574;11.170;2022-10-18T05:50:52;11.90;99.90
13409;DHT22;6775;49.574;11.170;2022-10-18T05:53:21;11.90;99.90
13409;DHT22;6775;49.574;11.170;2022-10-18T05:56:05;11.90;99.90
13409;DHT22;6775;49.574;11.170;2022-10-18T05:58:33;12.00;99.90
13409;DHT22;6775;49.574;11.170;2022-10-18T06:01:03;12.00;99.90
13409;DHT22;6775;49.574;11.170;2022-10-18T06:03:32;12.00;99.90
13409;DHT22;6775;49.574;11.170;2022-10-18T06:06:00;12.00;99.90
13409;DHT22;6775;49.574;11.170;2022-10-18T06:08:30;12.10;99.90
13409;DHT22;6775;49.574;11.170;2022-10-18T06:10:58;12.00;99.90
13409;DHT22;6775;49.574;11.170;2022-10-18T06:13:26;12.10;99.90
13409;DHT22;6775;49.574;11.170;2022-10-18T06:15:58;12.10;99.90
13409;DHT22;6775;49.574;11.170;2022-10-18T06:18:26;12.10;99.90
13409;DHT22;6775;49.574;11.170;2022-10-18T06:20:56;12.20;99.90
13409;DHT22;6775;49.574;11.170;2022-10-18T06:23:24;12.20;99.90
13409;DHT22;6775;49.574;11.170;2022-10-18T06:25:57;12.30;99.90
13409;DHT22;6775;49.574;11.170;2022-10-18T06:28:26;12.30;99.90
13409;DHT22;6775;49.574;11.170;2022-10-18T06:30:54;12.30;99.90
13409;DHT22;6775;49.574;11.170;2022-10-18T06:33:22;12.40;99.90
13409;DHT22;6775;49.574;11.170;2022-10-18T06:35:55;12.40;99.90
13409;DHT22;6775;49.574;11.170;2022-10-18T06:38:23;12.40;99.90
13409;DHT22;6775;49.574;11.170;2022-10-18T06:40:51;12.50;99.90
13409;DHT22;6775;49.574;11.170;2022-10-18T06:43:21;12.60;99.90
13409;DHT22;6775;49.574;11.170;2022-10-18T06:45:49;12.60;99.90
13409;DHT22;6775;49.574;11.170;2022-10-18T06:48:18;12.60;99.90
13409;DHT22;6775;49.574;11.170;2022-10-18T06:50:51;12.70;99.90
13409;DHT22;6775;49.574;11.170;2022-10-18T06:53:19;12.70;99.90
13409;DHT22;6775;49.574;11.170;2022-10-18T06:55:47;12.80;99.90
13409;DHT22;6775;49.574;11.170;2022-10-18T06:58:14;12.90;99.90
13409;DHT22;6775;49.574;11.170;2022-10-18T07:00:44;12.90;99.90
13409;DHT22;6775;49.574;11.170;2022-10-18T07:03:12;12.90;99.90
13409;DHT22;6775;49.574;11.170;2022-10-18T07:05:40;12.90;99.90
13409;DHT22;6775;49.574;11.170;2022-10-18T07:08:08;13.10;99.90
13409;DHT22;6775;49.574;11.170;2022-10-18T07:10:36;13.00;99.90
13409;DHT22;6775;49.574;11.170;2022-10-18T07:13:04;13.00;99.90
13409;DHT22;6775;49.574;11.170;2022-10-18T07:16:01;13.10;99.90
13409;DHT22;6775;49.574;11.170;2022-10-18T07:18:32;13.10;99.90
13409;DHT22;6775;49.574;11.170;2022-10-18T07:21:01;13.10;99.90
13409;DHT22;6775;49.574;11.170;2022-10-18T07:23:31;13.20;99.90
13409;DHT22;6775;49.574;11.170;2022-10-18T07:25:59;13.30;99.90
13409;DHT22;6775;49.574;11.170;2022-10-18T07:28:27;13.30;99.90
13409;DHT22;6775;49.574;11.170;2022-10-18T07:30:55;13.40;99.90
13409;DHT22;6775;49.574;11.170;2022-10-18T07:33:32;13.50;99.90
13409;DHT22;6775;49.574;11.170;2022-10-18T07:36:00;13.60;99.90
13409;DHT22;6775;49.574;11.170;2022-10-18T07:38:28;13.70;99.90
13409;DHT22;6775;49.574;11.170;2022-10-18T07:40:57;13.90;99.90
13409;DHT22;6775;49.574;11.170;2022-10-18T07:43:25;14.00;99.90
13409;DHT22;6775;49.574;11.170;2022-10-18T07:45:53;14.20;99.90
13409;DHT22;6775;49.574;11.170;2022-10-18T07:48:21;14.40;99.90
13409;DHT22;6775;49.574;11.170;2022-10-18T07:50:51;14.50;99.90
13409;DHT22;6775;49.574;11.170;2022-10-18T07:53:19;14.70;99.90
13409;DHT22;6775;49.574;11.170;2022-10-18T07:55:47;14.90;99.90
13409;DHT22;6775;49.574;11.170;2022-10-18T07:58:14;15.10;99.90
13409;DHT22;6775;49.574;11.170;2022-10-18T08:00:42;15.30;99.90
13409;DHT22;6775;49.574;11.170;2022-10-18T08:03:10;15.50;99.90
13409;DHT22;6775;49.574;11.170;2022-10-18T08:05:38;15.80;99.90
13409;DHT22;6775;49.574;11.170;2022-10-18T08:08:07;15.80;99.90
13409;DHT22;6775;49.574;11.170;2022-10-18T08:10:35;15.80;99.90
13409;DHT22;6775;49.574;11.170;2022-10-18T08:13:03;15.90;99.90
13409;DHT22;6775;49.574;11.170;2022-10-18T08:15:31;16.00;99.90
13409;DHT22;6775;49.574;11.170;2022-10-18T08:17:59;16.20;99.90
13409;DHT22;6775;49.574;11.170;2022-10-18T08:20:27;16.40;99.90
13409;DHT22;6775;49.574;11.170;2022-10-18T08:22:57;16.70;99.90
13409;DHT22;6775;49.574;11.170;2022-10-18T08:25:28;17.10;99.90
13409;DHT22;6775;49.574;11.170;2022-10-18T08:27:56;17.60;99.90
13409;DHT22;6775;49.574;11.170;2022-10-18T08:30:24;18.80;99.90
13409;DHT22;6775;49.574;11.170;2022-10-18T08:32:52;20.70;99.90
13409;DHT22;6775;49.574;11.170;2022-10-18T08:35:20;22.70;99.90
13409;DHT22;6775;49.574;11.170;2022-10-18T08:37:48;24.70;99.90
13409;DHT22;6775;49.574;11.170;2022-10-18T08:40:16;26.60;99.90
13409;DHT22;6775;49.574;11.170;2022-10-18T08:42:55;28.00;99.90
13409;DHT22;6775;49.574;11.170;2022-10-18T08:45:26;29.40;96.60
13409;DHT22;6775;49.574;11.170;2022-10-18T08:48:16;30.90;91.80
13409;DHT22;6775;49.574;11.170;2022-10-18T08:50:48;32.10;86.70
13409;DHT22;6775;49.574;11.170;2022-10-18T08:53:22;33.20;80.50
13409;DHT22;6775;49.574;11.170;2022-10-18T08:55:54;33.40;77.30
13409;DHT22;6775;49.574;11.170;2022-10-18T08:58:29;34.10;74.30
13409;DHT22;6775;49.574;11.170;2022-10-18T09:01:03;34.20;72.00
13409;DHT22;6775;49.574;11.170;2022-10-18T09:03:48;34.70;69.80
13409;DHT22;6775;49.574;11.170;2022-10-18T09:06:24;35.70;66.50
13409;DHT22;6775;49.574;11.170;2022-10-18T09:09:02;36.40;63.30
13409;DHT22;6775;49.574;11.170;2022-10-18T09:11:43;36.30;61.50
13409;DHT22;6775;49.574;11.170;2022-10-18T09:14:49;34.80;64.30
13409;DHT22;6775;49.574;11.170;2022-10-18T09:17:27;33.70;67.00
13409;DHT22;6775;49.574;11.170;2022-10-18T09:20:20;33.50;68.30
13409;DHT22;6775;49.574;11.170;2022-10-18T09:22:52;32.80;68.40
13409;DHT22;6775;49.574;11.170;2022-10-18T09:25:22;31.70;71.30
13409;DHT22;6775;49.574;11.170;2022-10-18T09:27:54;32.80;69.60
13409;DHT22;6775;49.574;11.170;2022-10-18T09:30:37;33.70;67.70
13409;DHT22;6775;49.574;11.170;2022-10-18T09:33:19;32.80;68.90
13409;DHT22;6775;49.574;11.170;2022-10-18T09:35:53;31.40;71.70
13409;DHT22;6775;49.574;11.170;2022-10-18T09:38:26;29.70;76.50
13409;DHT22;6775;49.574;11.170;2022-10-18T09:40:59;28.10;82.30
13409;DHT22;6775;49.574;11.170;2022-10-18T09:43:38;26.70;87.10
13409;DHT22;6775;49.574;11.170;2022-10-18T09:46:10;25.60;90.50
13409;DHT22;6775;49.574;11.170;2022-10-18T09:48:44;24.70;92.60
13409;DHT22;6775;49.574;11.170;2022-10-18T09:51:15;23.90;94.20
13409;DHT22;6775;49.574;11.170;2022-10-18T09:53:58;23.20;96.30
13409;DHT22;6775;49.574;11.170;2022-10-18T09:56:31;22.80;98.70
13409;DHT22;6775;49.574;11.170;2022-10-18T09:59:28;22.60;99.90
13409;DHT22;6775;49.574;11.170;2022-10-18T10:01:59;22.80;99.90
13409;DHT22;6775;49.574;11.170;2022-10-18T10:04:27;22.90;99.90
13409;DHT22;6775;49.574;11.170;2022-10-18T10:06:56;22.90;99.90
13409;DHT22;6775;49.574;11.170;2022-10-18T10:09:27;23.00;99.90
13409;DHT22;6775;49.574;11.170;2022-10-18T10:11:56;22.90;99.90
13409;DHT22;6775;49.574;11.170;2022-10-18T10:14:25;22.70;99.90
13409;DHT22;6775;49.574;11.170;2022-10-18T10:16:55;22.50;99.90
13409;DHT22;6775;49.574;11.170;2022-10-18T10:19:28;22.30;99.90
13409;DHT22;6775;49.574;11.170;2022-10-18T10:22:03;22.10;99.90
13409;DHT22;6775;49.574;11.170;2022-10-18T10:24:36;21.80;99.90
13409;DHT22;6775;49.574;11.170;2022-10-18T10:27:17;21.50;99.90
13409;DHT22;6775;49.574;11.170;2022-10-18T10:32:44;21.00;99.90
13409;DHT22;6775;49.574;11.170;2022-10-18T10:35:23;20.80;99.90
13409;DHT22;6775;49.574;11.170;2022-10-18T10:38:22;20.60;99.90
13409;DHT22;6775;49.574;11.170;2022-10-18T10:40:50;20.40;99.90
13409;DHT22;6775;49.574;11.170;2022-10-18T10:43:21;20.30;99.90
13409;DHT22;6775;49.574;11.170;2022-10-18T10:46:06;20.30;99.90
13409;DHT22;6775;49.574;11.170;2022-10-18T10:48:43;20.20;99.90
13409;DHT22;6775;49.574;11.170;2022-10-18T10:51:15;20.20;99.90
13409;DHT22;6775;49.574;11.170;2022-10-18T10:53:49;20.10;99.90
13409;DHT22;6775;49.574;11.170;2022-10-18T10:56:24;20.10;99.90
13409;DHT22;6775;49.574;11.170;2022-10-18T10:58:55;20.00;99.90
13409;DHT22;6775;49.574;11.170;2022-10-18T11:01:27;20.00;99.90
13409;DHT22;6775;49.574;11.170;2022-10-18T11:03:58;20.00;99.90
13409;DHT22;6775;49.574;11.170;2022-10-18T11:06:45;19.90;99.90
13409;DHT22;6775;49.574;11.170;2022-10-18T11:09:43;19.80;99.90
13409;DHT22;6775;49.574;11.170;2022-10-18T11:12:23;19.70;99.90
13409;DHT22;6775;49.574;11.170;2022-10-18T11:14:58;19.60;99.90
13409;DHT22;6775;49.574;11.170;2022-10-18T11:17:34;19.60;99.90
13409;DHT22;6775;49.574;11.170;2022-10-18T11:20:21;19.50;99.90
13409;DHT22;6775;49.574;11.170;2022-10-18T11:22:58;19.40;99.90
13409;DHT22;6775;49.574;11.170;2022-10-18T11:25:38;19.20;99.90
13409;DHT22;6775;49.574;11.170;2022-10-18T11:28:15;19.10;99.90
13409;DHT22;6775;49.574;11.170;2022-10-18T11:30:53;19.00;99.90
13409;DHT22;6775;49.574;11.170;2022-10-18T11:33:35;18.80;99.90
13409;DHT22;6775;49.574;11.170;2022-10-18T11:36:34;18.60;99.90
13409;DHT22;6775;49.574;11.170;2022-10-18T11:39:20;18.50;99.90
13409;DHT22;6775;49.574;11.170;2022-10-18T11:41:53;18.30;99.90
13409;DHT22;6775;49.574;11.170;2022-10-18T11:44:30;18.20;99.90
13409;DHT22;6775;49.574;11.170;2022-10-18T11:47:06;18.20;99.90
13409;DHT22;6775;49.574;11.170;2022-10-18T11:49:52;18.10;99.90
13409;DHT22;6775;49.574;11.170;2022-10-18T11:52:27;18.10;99.90
13409;DHT22;6775;49.574;11.170;2022-10-18T11:55:08;18.00;99.90
13409;DHT22;6775;49.574;11.170;2022-10-18T11:57:49;18.10;99.90
13409;DHT22;6775;49.574;11.170;2022-10-18T12:00:27;18.10;99.90
13409;DHT22;6775;49.574;11.170;2022-10-18T12:06:02;18.10;99.90
13409;DHT22;6775;49.574;11.170;2022-10-18T12:08:33;18.10;99.90
13409;DHT22;6775;49.574;11.170;2022-10-18T12:11:09;18.00;99.90
13409;DHT22;6775;49.574;11.170;2022-10-18T12:13:44;18.00;99.90
13409;DHT22;6775;49.574;11.170;2022-10-18T12:16:14;18.00;99.90
13409;DHT22;6775;49.574;11.170;2022-10-18T12:18:53;17.90;99.90
13409;DHT22;6775;49.574;11.170;2022-10-18T12:21:22;18.00;99.90
13409;DHT22;6775;49.574;11.170;2022-10-18T12:23:54;18.00;99.90
13409;DHT22;6775;49.574;11.170;2022-10-18T12:26:25;18.10;99.90
13409;DHT22;6775;49.574;11.170;2022-10-18T12:28:59;18.10;99.90
13409;DHT22;6775;49.574;11.170;2022-10-18T12:31:33;18.10;99.90
13409;DHT22;6775;49.574;11.170;2022-10-18T12:34:17;18.20;99.90
13409;DHT22;6775;49.574;11.170;2022-10-18T12:39:45;18.20;99.90
13409;DHT22;6775;49.574;11.170;2022-10-18T12:42:41;18.20;99.90
13409;DHT22;6775;49.574;11.170;2022-10-18T12:45:27;18.10;99.90
13409;DHT22;6775;49.574;11.170;2022-10-18T12:47:58;18.10;99.90
13409;DHT22;6775;49.574;11.170;2022-10-18T12:50:32;18.10;99.90
13409;DHT22;6775;49.574;11.170;2022-10-18T12:53:04;18.10;99.90
13409;DHT22;6775;49.574;11.170;2022-10-18T12:55:37;18.00;99.90
13409;DHT22;6775;49.574;11.170;2022-10-18T13:01:00;18.00;99.90
13409;DHT22;6775;49.574;11.170;2022-10-18T13:09:38;18.00;99.90
13409;DHT22;6775;49.574;11.170;2022-10-18T13:15:35;17.90;99.90
13409;DHT22;6775;49.574;11.170;2022-10-18T13:18:18;17.90;99.90
13409;DHT22;6775;49.574;11.170;2022-10-18T13:20:56;17.90;99.90
13409;DHT22;6775;49.574;11.170;2022-10-18T13:23:36;17.90;99.90
13409;DHT22;6775;49.574;11.170;2022-10-18T13:26:15;17.90;99.90
13409;DHT22;6775;49.574;11.170;2022-10-18T13:28:52;18.00;99.90
13409;DHT22;6775;49.574;11.170;2022-10-18T13:31:26;18.00;99.90
13409;DHT22;6775;49.574;11.170;2022-10-18T13:34:15;18.00;99.90
13409;DHT22;6775;49.574;11.170;2022-10-18T13:36:58;18.00;99.90
13409;DHT22;6775;49.574;11.170;2022-10-18T13:39:27;18.00;99.90
13409;DHT22;6775;49.574;11.170;2022-10-18T13:42:19;18.00;99.90
13409;DHT22;6775;49.574;11.170;2022-10-18T13:44:54;17.90;99.90
13409;DHT22;6775;49.574;11.170;2022-10-18T13:47:42;18.00;99.90
13409;DHT22;6775;49.574;11.170;2022-10-18T13:50:35;18.00;99.90
13409;DHT22;6775;49.574;11.170;2022-10-18T13:53:31;18.00;99.90
13409;DHT22;6775;49.574;11.170;2022-10-18T13:59:25;18.00;99.90
13409;DHT22;6775;49.574;11.170;2022-10-18T14:02:12;18.00;99.90
13409;DHT22;6775;49.574;11.170;2022-10-18T14:05:12;18.00;99.90
13409;DHT22;6775;49.574;11.170;2022-10-18T14:07:57;17.90;99.90
13409;DHT22;6775;49.574;11.170;2022-10-18T14:10:35;17.90;99.90
13409;DHT22;6775;49.574;11.170;2022-10-18T14:13:29;18.00;99.90
13409;DHT22;6775;49.574;11.170;2022-10-18T14:16:12;18.00;99.90
13409;DHT22;6775;49.574;11.170;2022-10-18T14:18:46;18.10;99.90
13409;DHT22;6775;49.574;11.170;2022-10-18T14:21:20;18.10;99.90
13409;DHT22;6775;49.574;11.170;2022-10-18T14:23:58;18.20;99.90
13409;DHT22;6775;49.574;11.170;2022-10-18T14:26:26;18.20;99.90
13409;DHT22;6775;49.574;11.170;2022-10-18T14:29:02;18.20;99.90
13409;DHT22;6775;49.574;11.170;2022-10-18T14:31:31;18.30;99.90
13409;DHT22;6775;49.574;11.170;2022-10-18T14:33:59;18.30;99.90
13409;DHT22;6775;49.574;11.170;2022-10-18T14:36:30;18.30;99.90
13409;DHT22;6775;49.574;11.170;2022-10-18T14:39:04;18.30;99.90
13409;DHT22;6775;49.574;11.170;2022-10-18T14:41:34;18.30;99.90
13409;DHT22;6775;49.574;11.170;2022-10-18T14:44:16;18.30;99.90
13409;DHT22;6775;49.574;11.170;2022-10-18T14:46:46;18.20;99.90
13409;DHT22;6775;49.574;11.170;2022-10-18T14:49:15;18.20;99.90
13409;DHT22;6775;49.574;11.170;2022-10-18T14:51:45;18.20;99.90
13409;DHT22;6775;49.574;11.170;2022-10-18T14:54:18;18.20;99.90
13409;DHT22;6775;49.574;11.170;2022-10-18T14:56:46;18.20;99.90
13409;DHT22;6775;49.574;11.170;2022-10-18T14:59:18;18.20;99.90
13409;DHT22;6775;49.574;11.170;2022-10-18T15:01:52;18.20;99.90
13409;DHT22;6775;49.574;11.170;2022-10-18T15:04:22;18.10;99.90
13409;DHT22;6775;49.574;11.170;2022-10-18T15:06:54;18.00;99.90
13409;DHT22;6775;49.574;11.170;2022-10-18T15:09:24;17.80;99.90
13409;DHT22;6775;49.574;11.170;2022-10-18T15:11:52;17.80;99.90
13409;DHT22;6775;49.574;11.170;2022-10-18T15:14:25;17.80;99.90
13409;DHT22;6775;49.574;11.170;2022-10-18T15:16:58;17.70;99.90
13409;DHT22;6775;49.574;11.170;2022-10-18T15:19:29;17.60;99.90
13409;DHT22;6775;49.574;11.170;2022-10-18T15:21:58;17.60;99.90
13409;DHT22;6775;49.574;11.170;2022-10-18T15:25:05;17.60;99.90
13409;DHT22;6775;49.574;11.170;2022-10-18T15:27:37;17.50;99.90
13409;DHT22;6775;49.574;11.170;2022-10-18T15:30:06;17.40;99.90
13409;DHT22;6775;49.574;11.170;2022-10-18T15:32:36;17.40;99.90
13409;DHT22;6775;49.574;11.170;2022-10-18T15:35:08;17.30;99.90
13409;DHT22;6775;49.574;11.170;2022-10-18T15:37:42;17.20;99.90
13409;DHT22;6775;49.574;11.170;2022-10-18T15:40:33;17.20;99.90
13409;DHT22;6775;49.574;11.170;2022-10-18T15:43:04;17.20;99.90
13409;DHT22;6775;49.574;11.170;2022-10-18T15:45:37;17.20;99.90
13409;DHT22;6775;49.574;11.170;2022-10-18T15:48:20;17.10;99.90
13409;DHT22;6775;49.574;11.170;2022-10-18T15:50:50;17.10;99.90
13409;DHT22;6775;49.574;11.170;2022-10-18T15:53:43;17.00;99.90
13409;DHT22;6775;49.574;11.170;2022-10-18T15:56:26;17.00;99.90
13409;DHT22;6775;49.574;11.170;2022-10-18T15:58:55;17.00;99.90
13409;DHT22;6775;49.574;11.170;2022-10-18T16:01:32;17.00;99.90
13409;DHT22;6775;49.574;11.170;2022-10-18T16:04:06;16.90;99.90
13409;DHT22;6775;49.574;11.170;2022-10-18T16:06:34;16.90;99.90
13409;DHT22;6775;49.574;11.170;2022-10-18T16:09:04;16.90;99.90
13409;DHT22;6775;49.574;11.170;2022-10-18T16:11:33;16.90;99.90
13409;DHT22;6775;49.574;11.170;2022-10-18T16:14:01;16.90;99.90
13409;DHT22;6775;49.574;11.170;2022-10-18T16:16:29;16.80;99.90
13409;DHT22;6775;49.574;11.170;2022-10-18T16:18:57;16.80;99.90
13409;DHT22;6775;49.574;11.170;2022-10-18T16:21:27;16.80;99.90
13409;DHT22;6775;49.574;11.170;2022-10-18T16:23:56;16.80;99.90
13409;DHT22;6775;49.574;11.170;2022-10-18T16:26:24;16.80;99.90
13409;DHT22;6775;49.574;11.170;2022-10-18T16:28:54;16.80;99.90
13409;DHT22;6775;49.574;11.170;2022-10-18T16:31:25;16.70;99.90